Southern Illinois Airport
KMDH : rendu visible

Aérodrome :











RETROUVEZ-NOUS SUR...

 
LOGIN :

S'inscrire | Disclaimer

   EN    FR    IT 

 









Légende :    VFR   VFR Marginal   IFR   IFR Intensif   IFR Très Intensif
Visi : 
Plafond : 
>= 8 km
>= 3000ft
5 à 8 km
1000 à 3000 ft
1500m à 5 km
500 à 1000 ft
800 à 1500m
200 à 500 ft
< 800m
< 200 ft
Symboles :   Orages  Brouillard  Fortes neiges  Fortes précipitations  Vent > 20 kt






- Altitude de l'aérodrome : 411 ft
- Code IATA : MDH


KMDH - Southern Illinois

DERNIER METAR :
  • 162152Z 18007KT 10SM CLR 29/21 A2992 RMK AO2 SLP127 T02940206

METARs EXPIRÉS :
  • 162052Z 18013G19KT 10SM FEW049 SCT065 SCT085 28/19 A2993 RMK AO2 PK WND 19035/2032 LTG DSNT SE SLP130 T02780194 56008
  • 162033Z 18026G35KT 8SM VCTS SCT049 BKN060 BKN070 31/20 A2994 RMK AO2 PK WND 19035/2032 LTG DSNT SE AND S T03060200
  • 161952Z 22008KT 10SM FEW050 33/22 A2992 RMK AO2 LTG DSNT S SLP127 T03280217
  • 161852Z 19011KT 10SM FEW050 34/22 A2995 RMK AO2 SLP137 T03390222
  • 161752Z 21015G25KT 10SM FEW047 33/22 A2997 RMK AO2 SLP142 T03330222 10333 20233 58003

TAF N/A
FIR KZKC / Amérique du Nord



MET'MAP, la Météo Aéronautique d'un coup d'oeil ! - Copyright ORBIFLY Décembre 2007 - Disclaimer

ORBIFLY MET'MAP TEAM :

Programmation & Développement : Alexandra Zaïnal
Sur une idée originale de : Baudouin d'Aumeries
Soutien technique & logistique : Manuel Goepfert
Assistance : Marc-Olivier Méhu




SOURCES & CREDITS :

   NOAA       Earth
Advisory